Time;durP1;ratioP1;P1;durP2;ratioP2;P2;SDS_P1;SDS_P2;PMS_P1;PMS_P2;Temp;Humidity;BMP_temperature;BMP_pressure;BME280_temperature;BME280_humidity;BME280_pressure;Samples;Min_cycle;Max_cycle;Signal;HPM_P1;HPM_P2
2021/03/01 00:01:13;;;;;;;4.80;4.30;;;21.10;43.40;;;;;;5033179;28;20272;-70
2021/03/01 00:03:38;;;;;;;5.23;4.37;;;21.10;43.40;;;;;;5033310;28;20526;-69
2021/03/01 00:06:04;;;;;;;5.20;4.70;;;21.10;43.40;;;;;;5033234;28;20179;-70
2021/03/01 00:08:30;;;;;;;4.73;4.20;;;21.10;43.40;;;;;;5033060;28;20688;-70
2021/03/01 00:10:56;;;;;;;6.20;4.70;;;21.10;43.50;;;;;;5033165;28;20547;-70
2021/03/01 00:13:22;;;;;;;4.90;4.40;;;21.10;43.50;;;;;;5033166;28;20658;-70
2021/03/01 00:15:49;;;;;;;5.20;4.70;;;21.10;43.60;;;;;;5033110;28;20501;-70
2021/03/01 00:18:15;;;;;;;4.60;4.10;;;21.10;43.60;;;;;;5033025;28;20876;-70
2021/03/01 00:20:41;;;;;;;4.20;3.57;;;21.10;43.60;;;;;;5032947;28;20461;-70
2021/03/01 00:23:09;;;;;;;4.67;3.70;;;21.10;43.60;;;;;;5031733;28;20259;-70
2021/03/01 00:25:35;;;;;;;4.60;3.90;;;21.10;43.60;;;;;;5033245;28;20184;-70
2021/03/01 00:28:00;;;;;;;5.00;4.50;;;21.10;43.70;;;;;;5031643;28;20438;-70
2021/03/01 00:30:26;;;;;;;4.77;4.37;;;21.10;43.70;;;;;;5033058;28;20654;-70
2021/03/01 00:32:52;;;;;;;4.53;3.97;;;21.10;43.70;;;;;;5032952;28;20235;-70
2021/03/01 00:35:17;;;;;;;4.80;4.07;;;21.10;43.70;;;;;;5033024;28;20207;-70
2021/03/01 00:37:43;;;;;;;4.80;3.83;;;21.10;43.80;;;;;;5033637;28;20195;-70
2021/03/01 00:40:09;;;;;;;3.63;3.30;;;21.00;43.70;;;;;;5036008;28;20175;-70
2021/03/01 00:42:35;;;;;;;4.10;3.70;;;21.10;43.80;;;;;;5036641;28;20661;-70
2021/03/01 00:45:00;;;;;;;4.30;3.90;;;21.10;43.80;;;;;;5036597;28;20407;-70
2021/03/01 00:47:26;;;;;;;4.30;3.90;;;21.10;43.90;;;;;;5036360;28;20195;-70
2021/03/01 00:49:52;;;;;;;4.07;3.77;;;21.10;43.90;;;;;;5036710;28;20174;-70
2021/03/01 00:52:17;;;;;;;5.33;4.50;;;21.00;43.80;;;;;;5035148;28;20236;-70
2021/03/01 00:54:43;;;;;;;5.07;4.00;;;21.00;43.80;;;;;;5036389;28;20191;-70
2021/03/01 00:57:08;;;;;;;4.30;3.90;;;21.10;44.00;;;;;;5036441;28;20207;-70
2021/03/01 00:59:34;;;;;;;4.00;3.63;;;21.10;44.00;;;;;;5036291;28;20190;-70
2021/03/01 01:02:00;;;;;;;3.63;3.30;;;21.10;44.00;;;;;;5036122;28;20204;-70
2021/03/01 01:04:25;;;;;;;4.53;3.77;;;21.10;44.00;;;;;;5036151;28;20175;-70
2021/03/01 01:06:51;;;;;;;4.50;3.90;;;21.10;44.10;;;;;;5034846;28;20717;-70
2021/03/01 01:09:17;;;;;;;4.30;3.87;;;21.10;44.10;;;;;;5036265;28;20174;-70
2021/03/01 01:11:43;;;;;;;4.10;3.73;;;21.10;44.10;;;;;;5034752;28;20183;-70
2021/03/01 01:14:09;;;;;;;5.00;4.10;;;21.10;44.10;;;;;;5036043;28;20414;-70
2021/03/01 01:16:35;;;;;;;4.30;3.60;;;21.10;44.10;;;;;;5035858;28;20411;-70
2021/03/01 01:19:01;;;;;;;4.43;3.90;;;21.10;44.10;;;;;;5035716;28;20449;-70
2021/03/01 01:21:27;;;;;;;3.50;3.20;;;21.10;44.20;;;;;;5036168;28;20235;-70
2021/03/01 01:23:53;;;;;;;4.10;3.60;;;21.00;44.10;;;;;;5036350;28;20502;-70
2021/03/01 01:26:18;;;;;;;4.30;3.90;;;21.00;44.10;;;;;;5035854;28;20682;-68
2021/03/01 01:28:44;;;;;;;3.60;3.20;;;21.10;44.20;;;;;;5034185;28;20549;-70
2021/03/01 01:31:09;;;;;;;3.63;3.30;;;21.10;44.30;;;;;;5035918;28;20203;-70
2021/03/01 01:33:35;;;;;;;4.50;3.87;;;21.00;44.20;;;;;;5035610;28;20176;-70
2021/03/01 01:36:00;;;;;;;4.07;3.67;;;21.00;44.20;;;;;;5035625;28;20172;-70
2021/03/01 01:38:26;;;;;;;3.70;3.30;;;21.00;44.20;;;;;;5037573;28;20195;-69
2021/03/01 01:40:51;;;;;;;4.67;4.13;;;21.00;44.30;;;;;;5035380;28;20195;-70
2021/03/01 01:43:17;;;;;;;3.67;3.30;;;21.00;44.30;;;;;;5035630;28;20183;-70
2021/03/01 01:45:43;;;;;;;4.07;3.60;;;21.00;44.30;;;;;;5035937;28;20172;-70
2021/03/01 01:48:09;;;;;;;5.57;5.07;;;21.00;44.30;;;;;;5035381;28;20223;-70
2021/03/01 01:50:34;;;;;;;3.97;3.57;;;21.00;44.30;;;;;;5035084;28;20184;-69
2021/03/01 01:53:00;;;;;;;4.07;3.57;;;21.00;44.40;;;;;;5035285;28;20172;-70
2021/03/01 01:55:27;;;;;;;3.30;3.00;;;21.00;44.40;;;;;;5035201;28;20176;-70
2021/03/01 01:57:53;;;;;;;3.90;3.47;;;21.00;44.40;;;;;;5035278;28;20587;-70
2021/03/01 02:00:45;;;;;;;3.70;3.13;;;21.00;44.40;;;;;;5035117;28;20502;-70
2021/03/01 02:03:32;;;;;;;3.97;3.57;;;21.00;44.40;;;;;;5035157;28;20206;-70
2021/03/01 02:06:22;;;;;;;3.70;3.40;;;21.00;44.40;;;;;;5035146;28;20770;-70
2021/03/01 02:09:14;;;;;;;3.90;3.20;;;21.00;44.50;;;;;;5023964;28;20434;-70
2021/03/01 02:11:56;;;;;;;4.47;3.67;;;21.00;44.50;;;;;;5034406;28;20552;-70
2021/03/01 02:14:33;;;;;;;3.90;3.30;;;21.00;44.50;;;;;;5035085;28;20805;-70
2021/03/01 02:16:59;;;;;;;5.10;4.10;;;21.00;44.60;;;;;;5035042;28;20928;-70
2021/03/01 02:19:25;;;;;;;4.23;3.50;;;21.00;44.60;;;;;;5034759;28;20410;-70
2021/03/01 02:21:51;;;;;;;3.50;3.20;;;21.00;44.60;;;;;;5034694;28;20450;-70
2021/03/01 02:24:22;;;;;;;4.30;3.50;;;21.00;44.60;;;;;;5034858;28;20465;-70
2021/03/01 02:26:50;;;;;;;4.20;3.60;;;21.00;44.60;;;;;;5033310;28;20426;-70
2021/03/01 02:29:20;;;;;;;4.20;3.60;;;21.00;44.60;;;;;;5033040;28;20439;-70
2021/03/01 02:31:47;;;;;;;3.47;3.17;;;21.00;44.60;;;;;;5034498;28;20422;-70
2021/03/01 02:34:16;;;;;;;4.10;3.40;;;21.00;44.60;;;;;;5034911;28;20785;-70
2021/03/01 02:36:47;;;;;;;4.63;3.93;;;21.00;44.60;;;;;;5034310;28;20422;-70
2021/03/01 02:39:20;;;;;;;3.40;3.00;;;21.00;44.70;;;;;;5034448;28;20399;-70
2021/03/01 02:41:46;;;;;;;3.60;3.17;;;21.00;44.70;;;;;;5034076;28;20454;-70
2021/03/01 02:44:12;;;;;;;3.23;2.93;;;21.00;44.70;;;;;;5034601;28;20440;-70
2021/03/01 02:46:39;;;;;;;3.70;3.40;;;21.00;44.70;;;;;;5034156;28;20493;-69
2021/03/01 02:49:09;;;;;;;4.10;3.40;;;21.00;44.70;;;;;;5034025;28;20418;-70
2021/03/01 02:51:36;;;;;;;3.23;2.93;;;21.00;44.80;;;;;;5032960;28;20857;-70
2021/03/01 02:54:03;;;;;;;3.50;3.20;;;21.00;44.70;;;;;;5034349;28;20418;-70
2021/03/01 02:56:30;;;;;;;5.03;3.23;;;21.00;44.80;;;;;;5032717;28;20425;-70
2021/03/01 02:58:56;;;;;;;4.83;3.90;;;21.00;44.80;;;;;;5032570;28;20485;-70
2021/03/01 03:01:23;;;;;;;3.80;3.40;;;21.00;44.80;;;;;;5031907;28;20458;-70
2021/03/01 03:03:51;;;;;;;3.07;2.77;;;21.00;44.80;;;;;;5033845;28;20414;-68
2021/03/01 03:06:18;;;;;;;3.10;2.80;;;21.00;44.80;;;;;;5032495;28;20411;-70
2021/03/01 03:08:46;;;;;;;3.57;3.27;;;21.00;44.90;;;;;;5033749;28;20439;-70
2021/03/01 03:11:16;;;;;;;3.33;2.90;;;21.00;44.80;;;;;;5032423;28;20473;-70
2021/03/01 03:13:44;;;;;;;3.47;2.60;;;21.00;44.80;;;;;;5033733;28;20931;-70
2021/03/01 03:16:11;;;;;;;3.13;2.67;;;21.00;44.90;;;;;;5033656;28;20429;-70
2021/03/01 03:18:39;;;;;;;4.07;3.20;;;21.00;44.90;;;;;;5033543;28;20438;-70
2021/03/01 03:21:05;;;;;;;3.13;2.83;;;21.00;44.90;;;;;;5033502;28;20529;-70
2021/03/01 03:23:30;;;;;;;3.77;3.40;;;21.00;44.90;;;;;;5033542;28;20970;-70
2021/03/01 03:25:56;;;;;;;4.10;2.83;;;21.00;44.90;;;;;;5032397;28;20647;-70
2021/03/01 03:28:22;;;;;;;3.03;2.77;;;21.00;45.00;;;;;;5031975;28;20685;-70
2021/03/01 03:30:48;;;;;;;3.53;3.03;;;21.00;45.00;;;;;;5033468;28;20168;-70
2021/03/01 03:33:14;;;;;;;3.17;2.87;;;21.00;45.00;;;;;;5033548;28;20262;-70
2021/03/01 03:35:39;;;;;;;3.20;2.90;;;21.00;45.00;;;;;;5033558;28;20441;-70
2021/03/01 03:38:07;;;;;;;3.60;3.00;;;21.00;45.00;;;;;;5031951;28;20203;-69
2021/03/01 03:40:34;;;;;;;3.10;2.70;;;21.00;45.00;;;;;;5033247;28;20639;-70
2021/03/01 03:43:02;;;;;;;3.20;2.73;;;21.00;45.00;;;;;;5033416;28;20502;-69
2021/03/01 03:45:27;;;;;;;3.90;3.00;;;21.00;45.00;;;;;;5033414;28;20433;-70
2021/03/01 03:47:56;;;;;;;3.00;2.67;;;21.00;45.00;;;;;;5033161;28;20431;-70
2021/03/01 03:50:24;;;;;;;4.07;3.10;;;21.00;45.00;;;;;;5033187;28;20178;-70
2021/03/01 03:52:56;;;;;;;3.27;2.67;;;21.00;45.00;;;;;;5033226;28;20780;-70
2021/03/01 03:55:23;;;;;;;3.27;2.97;;;20.90;45.00;;;;;;5033723;28;20882;-70
2021/03/01 03:58:12;;;;;;;4.20;3.23;;;20.90;45.00;;;;;;5033105;28;20430;-70
2021/03/01 04:00:38;;;;;;;3.57;3.03;;;21.00;45.10;;;;;;5033005;28;20481;-70
2021/03/01 04:03:12;;;;;;;3.40;3.10;;;20.90;45.10;;;;;;5033396;28;20917;-70
2021/03/01 04:05:44;;;;;;;3.00;2.50;;;21.00;45.10;;;;;;5031892;28;20415;-70
2021/03/01 04:08:13;;;;;;;3.87;3.10;;;21.00;45.10;;;;;;5032987;28;20453;-70
2021/03/01 04:10:43;;;;;;;3.00;2.70;;;20.90;45.10;;;;;;5032903;28;20498;-70
2021/03/01 04:13:12;;;;;;;2.90;2.70;;;21.00;45.20;;;;;;5034653;28;20939;-69
2021/03/01 04:15:41;;;;;;;3.50;2.97;;;20.90;45.10;;;;;;5037059;28;20418;-69
2021/03/01 04:18:08;;;;;;;4.30;3.00;;;21.00;45.20;;;;;;5037190;28;20913;-69
2021/03/01 04:20:36;;;;;;;2.97;2.67;;;20.90;45.10;;;;;;5037070;28;20414;-70
2021/03/01 04:23:02;;;;;;;3.00;2.70;;;20.90;45.10;;;;;;5036892;28;20438;-69
2021/03/01 04:25:29;;;;;;;3.00;2.70;;;20.90;45.10;;;;;;5036934;28;20414;-70
2021/03/01 04:27:56;;;;;;;3.20;2.90;;;20.90;45.10;;;;;;5036791;28;20422;-70
2021/03/01 04:30:23;;;;;;;2.90;2.60;;;20.90;45.10;;;;;;5035327;28;20442;-69
2021/03/01 04:32:50;;;;;;;3.73;2.97;;;20.90;45.10;;;;;;5036716;28;20414;-70
2021/03/01 04:35:19;;;;;;;3.20;2.90;;;20.90;45.20;;;;;;5036663;28;20410;-70
2021/03/01 04:37:46;;;;;;;3.40;2.60;;;21.00;45.30;;;;;;5036476;28;20521;-69
2021/03/01 04:40:13;;;;;;;4.40;3.10;;;20.90;45.20;;;;;;5036582;28;20493;-70
2021/03/01 04:42:42;;;;;;;3.87;2.83;;;20.90;45.20;;;;;;5036520;28;20539;-69
2021/03/01 04:45:08;;;;;;;3.47;3.17;;;21.00;45.30;;;;;;5036536;28;20414;-70
2021/03/01 04:47:35;;;;;;;5.07;3.13;;;20.90;45.20;;;;;;5036448;28;20438;-69
2021/03/01 04:50:01;;;;;;;2.97;2.57;;;20.90;45.20;;;;;;5036412;28;20406;-69
2021/03/01 04:52:30;;;;;;;3.40;3.10;;;20.90;45.20;;;;;;5036346;28;20414;-69
2021/03/01 04:54:56;;;;;;;2.93;2.63;;;20.90;45.20;;;;;;5036252;28;20422;-69
2021/03/01 04:57:22;;;;;;;2.50;2.30;;;20.90;45.30;;;;;;5036312;28;20485;-69
2021/03/01 04:59:48;;;;;;;2.97;2.77;;;20.90;45.30;;;;;;5036579;28;20410;-70
2021/03/01 05:02:15;;;;;;;3.17;2.80;;;20.90;45.30;;;;;;5035087;28;20454;-70
2021/03/01 05:04:41;;;;;;;3.83;3.13;;;20.90;45.30;;;;;;5036142;28;20464;-70
2021/03/01 05:07:08;;;;;;;2.53;2.20;;;20.90;45.30;;;;;;5034694;28;20434;-70
2021/03/01 05:09:38;;;;;;;3.23;2.77;;;20.90;45.40;;;;;;5036033;28;20411;-70
2021/03/01 05:12:05;;;;;;;3.13;2.60;;;20.90;45.40;;;;;;5035974;28;20852;-70
2021/03/01 05:14:31;;;;;;;3.57;3.27;;;20.90;45.40;;;;;;5035997;28;20833;-70
2021/03/01 05:16:57;;;;;;;2.77;2.50;;;20.90;45.40;;;;;;5035852;28;20912;-70
2021/03/01 05:19:22;;;;;;;4.20;3.17;;;20.90;45.50;;;;;;5035852;28;20413;-70
2021/03/01 05:21:48;;;;;;;3.07;2.73;;;20.90;45.50;;;;;;5035979;28;20200;-70
2021/03/01 05:24:14;;;;;;;2.93;2.63;;;20.90;45.50;;;;;;5033825;28;20635;-70
2021/03/01 05:26:39;;;;;;;3.37;3.03;;;20.80;45.50;;;;;;5035855;28;20233;-69
2021/03/01 05:29:05;;;;;;;3.23;2.70;;;20.90;45.50;;;;;;5034366;28;20206;-70
2021/03/01 05:31:31;;;;;;;3.73;2.90;;;20.80;45.40;;;;;;5034281;28;20176;-69
2021/03/01 05:33:57;;;;;;;4.60;3.17;;;20.90;45.50;;;;;;5034370;28;20698;-70
2021/03/01 05:36:22;;;;;;;4.13;2.83;;;20.90;45.50;;;;;;5035438;28;20568;-70
2021/03/01 05:38:48;;;;;;;3.40;2.90;;;20.90;45.50;;;;;;5035409;28;20235;-70
2021/03/01 05:41:18;;;;;;;3.40;2.70;;;20.90;45.50;;;;;;5035358;28;20199;-70
2021/03/01 05:43:46;;;;;;;3.03;2.73;;;20.90;45.40;;;;;;5035361;28;20663;-70
2021/03/01 05:46:12;;;;;;;3.13;2.83;;;20.80;45.30;;;;;;5035526;28;20438;-70
2021/03/01 05:48:40;;;;;;;3.37;2.90;;;20.90;45.40;;;;;;5035374;28;21015;-70
2021/03/01 05:51:06;;;;;;;3.17;2.40;;;20.90;45.40;;;;;;5035237;28;20429;-70
2021/03/01 05:53:38;;;;;;;2.67;2.47;;;20.90;45.40;;;;;;5035546;28;20419;-70
2021/03/01 05:56:04;;;;;;;3.57;3.27;;;20.90;45.40;;;;;;5035537;28;20401;-70
2021/03/01 05:58:30;;;;;;;3.90;2.67;;;20.90;45.40;;;;;;5035080;28;20437;-69
2021/03/01 06:01:01;;;;;;;3.90;2.90;;;20.90;45.40;;;;;;5035007;28;20478;-70
2021/03/01 06:03:34;;;;;;;2.90;2.57;;;20.90;45.40;;;;;;5035004;28;20410;-70
2021/03/01 06:06:00;;;;;;;3.50;3.20;;;20.90;45.40;;;;;;5035773;28;20772;-70
2021/03/01 06:08:27;;;;;;;3.40;2.83;;;21.00;45.40;;;;;;5034926;28;20438;-70
2021/03/01 06:11:04;;;;;;;3.00;2.67;;;21.00;45.40;;;;;;5034719;28;20944;-70
2021/03/01 06:13:29;;;;;;;3.60;2.47;;;21.00;45.40;;;;;;5035052;28;20390;-70
2021/03/01 06:15:57;;;;;;;3.57;2.47;;;21.00;45.40;;;;;;5035068;28;20418;-70
2021/03/01 06:18:24;;;;;;;2.93;2.67;;;21.00;45.40;;;;;;5034672;28;20227;-70
2021/03/01 06:20:51;;;;;;;3.60;2.50;;;21.00;45.40;;;;;;5033338;28;20465;-70
2021/03/01 06:23:34;;;;;;;3.70;2.70;;;21.10;45.50;;;;;;5034630;28;20438;-70
2021/03/01 06:26:23;;;;;;;2.60;2.17;;;21.10;45.50;;;;;;5034641;28;20410;-69
2021/03/01 06:28:50;;;;;;;3.60;2.83;;;21.10;45.50;;;;;;5034439;28;20445;-70
2021/03/01 06:31:35;;;;;;;3.20;2.70;;;21.00;45.40;;;;;;5034436;28;20402;-70
2021/03/01 06:34:19;;;;;;;3.47;2.57;;;21.10;45.50;;;;;;5034653;28;20777;-70
2021/03/01 06:37:08;;;;;;;3.63;2.97;;;21.10;45.50;;;;;;5033219;28;20403;-69
2021/03/01 06:39:36;;;;;;;2.77;2.57;;;21.10;45.60;;;;;;5034631;28;20407;-70
2021/03/01 06:42:23;;;;;;;2.77;2.47;;;21.10;45.60;;;;;;5034102;28;20493;-70
2021/03/01 06:45:10;;;;;;;2.77;2.43;;;21.10;45.50;;;;;;5034359;28;20386;-70
2021/03/01 06:47:52;;;;;;;7.73;2.57;;;21.10;45.40;;;;;;5032714;28;20821;-70
2021/03/01 06:50:23;;;;;;;4.10;2.43;;;21.20;45.50;;;;;;5034414;28;20394;-70
2021/03/01 06:52:50;;;;;;;3.63;2.47;;;21.20;45.60;;;;;;5034049;28;20407;-70
2021/03/01 06:55:16;;;;;;;3.00;2.50;;;21.20;45.60;;;;;;5034009;28;20402;-70
2021/03/01 06:57:48;;;;;;;4.93;3.13;;;21.20;45.60;;;;;;5132139;27;20580;-68
2021/03/01 07:00:20;;;;;;;3.20;2.90;;;21.20;45.60;;;;;;5131610;27;20402;-68
2021/03/01 07:02:46;;;;;;;3.20;2.50;;;21.30;45.70;;;;;;5131403;28;20160;-67
2021/03/01 07:05:12;;;;;;;8.87;2.80;;;21.20;45.60;;;;;;5131354;28;20398;-68
2021/03/01 07:07:38;;;;;;;3.07;2.47;;;21.30;45.60;;;;;;5131210;28;20671;-68
2021/03/01 07:10:06;;;;;;;3.50;2.20;;;21.30;45.60;;;;;;5131265;27;20160;-67
2021/03/01 07:12:51;;;;;;;2.90;2.50;;;21.30;45.60;;;;;;5131563;27;20419;-68
2021/03/01 07:15:16;;;;;;;2.50;2.30;;;21.40;45.70;;;;;;5131208;28;20473;-68
2021/03/01 07:17:44;;;;;;;3.97;2.80;;;21.40;45.60;;;;;;5129739;27;20549;-70
2021/03/01 07:20:13;;;;;;;2.80;2.50;;;21.40;45.70;;;;;;5131178;27;20410;-68
2021/03/01 07:22:40;;;;;;;2.70;2.43;;;21.40;45.70;;;;;;5131072;27;20869;-68
2021/03/01 07:25:08;;;;;;;2.63;2.30;;;21.40;45.70;;;;;;5131001;27;20442;-68
2021/03/01 07:27:38;;;;;;;3.20;2.53;;;21.50;45.80;;;;;;5131179;27;20425;-68
2021/03/01 07:30:05;;;;;;;2.67;2.20;;;21.50;45.80;;;;;;5130026;28;20414;-68
2021/03/01 07:32:32;;;;;;;3.23;2.50;;;21.50;45.70;;;;;;5131135;27;20410;-68
2021/03/01 07:35:00;;;;;;;5.13;3.07;;;21.50;45.70;;;;;;5131310;27;20896;-68
2021/03/01 07:37:26;;;;;;;3.13;2.50;;;21.50;45.80;;;;;;5135345;22;20497;-65
2021/03/01 07:39:52;;;;;;;2.77;2.57;;;21.50;45.70;;;;;;5049843;28;20896;-66
2021/03/01 07:42:19;;;;;;;2.83;2.30;;;21.50;45.70;;;;;;5049822;28;20421;-66
2021/03/01 07:44:48;;;;;;;2.17;1.97;;;21.50;45.70;;;;;;5050133;28;20657;-66
2021/03/01 07:47:14;;;;;;;5.00;2.73;;;21.50;45.70;;;;;;5049645;28;20810;-65
2021/03/01 07:49:43;;;;;;;2.63;2.03;;;21.50;45.70;;;;;;5049563;28;20424;-66
2021/03/01 07:52:18;;;;;;;2.60;2.40;;;21.50;45.60;;;;;;5049615;28;20829;-66
2021/03/01 07:55:02;;;;;;;3.03;2.50;;;21.60;45.70;;;;;;5049729;28;20401;-66
2021/03/01 07:57:30;;;;;;;2.53;2.33;;;21.60;45.80;;;;;;5049420;28;20532;-63
2021/03/01 07:59:57;;;;;;;2.70;2.50;;;21.50;45.70;;;;;;5049421;28;20417;-63
2021/03/01 08:02:29;;;;;;;3.70;2.67;;;21.60;45.80;;;;;;5048269;28;20441;-64
2021/03/01 08:04:58;;;;;;;2.33;2.13;;;21.60;45.80;;;;;;5049584;28;20430;-64
2021/03/01 08:07:40;;;;;;;3.20;2.53;;;21.60;45.80;;;;;;5044597;28;20493;-64
2021/03/01 08:10:11;;;;;;;3.30;2.57;;;21.60;45.80;;;;;;5035954;28;20787;-63
2021/03/01 08:12:39;;;;;;;2.33;2.13;;;21.60;45.80;;;;;;5036514;28;20394;-66
2021/03/01 08:15:09;;;;;;;3.00;2.40;;;21.60;45.80;;;;;;5036135;28;20822;-64
2021/03/01 08:17:39;;;;;;;3.00;2.73;;;21.60;45.80;;;;;;5034398;28;20489;-67
2021/03/01 08:20:26;;;;;;;2.53;2.33;;;21.60;46.30;;;;;;5036338;28;20411;-65
2021/03/01 08:25:54;;;;;;;2.70;2.27;;;21.60;45.80;;;;;;5035959;28;20481;-66
2021/03/01 08:28:22;;;;;;;3.20;2.70;;;21.60;45.90;;;;;;5035807;28;20434;-66
2021/03/01 08:30:50;;;;;;;2.90;2.60;;;21.60;45.90;;;;;;5035590;28;20409;-64
2021/03/01 08:33:15;;;;;;;2.27;2.07;;;21.60;45.90;;;;;;5035900;28;20435;-66
2021/03/01 08:36:06;;;;;;;3.27;2.53;;;21.60;45.90;;;;;;5036074;28;20888;-66
2021/03/01 08:38:43;;;;;;;4.10;2.63;;;21.60;45.90;;;;;;5035633;28;20215;-65
2021/03/01 08:41:10;;;;;;;2.37;2.17;;;21.70;46.00;;;;;;5035486;28;20398;-66
2021/03/01 08:43:38;;;;;;;3.07;2.70;;;21.60;45.90;;;;;;5035539;28;20417;-66
2021/03/01 08:46:04;;;;;;;2.40;2.10;;;21.70;46.00;;;;;;5035561;28;20417;-67
2021/03/01 08:48:30;;;;;;;2.40;2.10;;;21.60;45.90;;;;;;5035221;28;20434;-67
2021/03/01 08:50:56;;;;;;;3.00;2.50;;;21.60;45.90;;;;;;5035709;28;20456;-67
2021/03/01 08:53:25;;;;;;;2.70;2.40;;;21.70;46.00;;;;;;5035451;28;20407;-66
2021/03/01 08:55:51;;;;;;;3.80;2.43;;;21.70;46.00;;;;;;5035321;28;20455;-66
2021/03/01 08:58:18;;;;;;;5.60;3.37;;;21.70;46.00;;;;;;5035358;28;20419;-66
2021/03/01 09:00:52;;;;;;;5.67;3.50;;;21.70;46.00;;;;;;5035139;28;20409;-66
2021/03/01 09:03:25;;;;;;;6.13;3.93;;;21.70;46.00;;;;;;5035442;28;20477;-66
2021/03/01 09:05:53;;;;;;;7.40;5.00;;;21.70;46.00;;;;;;5033932;28;20407;-66
2021/03/01 09:08:27;;;;;;;7.17;5.53;;;21.80;46.10;;;;;;5035069;28;20419;-65
2021/03/01 09:10:53;;;;;;;7.17;5.00;;;21.80;46.10;;;;;;5034962;28;20496;-66
2021/03/01 09:13:21;;;;;;;7.70;5.77;;;21.80;46.10;;;;;;5035227;28;20422;-66
2021/03/01 09:15:48;;;;;;;6.70;5.37;;;21.80;46.10;;;;;;5034830;28;20198;-66
2021/03/01 09:18:14;;;;;;;7.27;5.73;;;21.80;46.10;;;;;;5035228;28;20468;-66
2021/03/01 09:20:53;;;;;;;8.50;6.00;;;21.80;46.10;;;;;;5032670;28;20486;-66
2021/03/01 09:23:46;;;;;;;6.33;5.73;;;21.80;46.10;;;;;;5034945;28;20901;-66
2021/03/01 09:26:28;;;;;;;10.47;6.53;;;21.80;46.00;;;;;;5033533;28;20435;-65
2021/03/01 09:29:07;;;;;;;6.47;5.33;;;21.80;46.10;;;;;;5034871;28;20422;-66
2021/03/01 09:31:53;;;;;;;8.13;5.97;;;21.80;46.10;;;;;;5035154;28;20403;-66
2021/03/01 09:34:25;;;;;;;7.57;5.80;;;21.90;46.20;;;;;;5034658;28;20426;-66
2021/03/01 09:36:51;;;;;;;8.13;6.43;;;21.80;46.70;;;;;;5034495;28;20442;-66
2021/03/01 09:39:23;;;;;;;6.73;6.03;;;21.80;46.10;;;;;;5034525;28;20529;-66
2021/03/01 09:41:50;;;;;;;9.50;6.40;;;21.80;46.10;;;;;;5034612;28;20513;-67
2021/03/01 09:44:29;;;;;;;10.97;6.27;;;21.80;46.10;;;;;;5034359;28;20422;-66
2021/03/01 09:46:57;;;;;;;10.70;6.20;;;21.90;46.10;;;;;;5034423;28;20421;-67
2021/03/01 09:49:24;;;;;;;9.67;6.13;;;21.80;46.10;;;;;;5034385;28;20431;-66
2021/03/01 09:51:51;;;;;;;7.90;5.17;;;21.90;46.20;;;;;;5034291;28;20414;-66
2021/03/01 09:54:17;;;;;;;10.30;6.33;;;21.90;46.20;;;;;;5034416;28;20493;-66
2021/03/01 09:56:44;;;;;;;8.00;5.80;;;21.90;46.20;;;;;;5034360;28;20532;-66
2021/03/01 09:59:11;;;;;;;8.97;6.53;;;21.90;46.20;;;;;;5032932;28;20430;-67
2021/03/01 10:01:37;;;;;;;7.43;6.40;;;21.90;46.20;;;;;;5034198;28;20410;-67
2021/03/01 10:04:03;;;;;;;7.57;5.90;;;21.90;46.20;;;;;;5034082;28;20490;-66
2021/03/01 10:06:42;;;;;;;6.97;5.97;;;21.90;46.20;;;;;;5034545;28;20511;-66
2021/03/01 10:09:11;;;;;;;7.90;6.20;;;21.90;46.20;;;;;;5034083;28;20836;-66
2021/03/01 10:11:38;;;;;;;8.43;6.57;;;21.90;46.20;;;;;;5034082;28;20497;-66
2021/03/01 10:14:04;;;;;;;6.40;5.80;;;21.90;46.20;;;;;;5034382;28;20414;-66
2021/03/01 10:16:36;;;;;;;8.07;5.77;;;21.90;46.20;;;;;;5034159;28;20957;-66
2021/03/01 10:19:11;;;;;;;8.33;6.17;;;21.90;46.20;;;;;;5032718;28;20431;-66
2021/03/01 10:21:37;;;;;;;9.90;7.07;;;22.00;46.30;;;;;;5034155;28;20982;-66
2021/03/01 10:24:06;;;;;;;8.50;6.80;;;21.90;46.20;;;;;;5033779;28;20399;-66
2021/03/01 10:26:47;;;;;;;9.07;6.40;;;21.90;46.20;;;;;;5033820;28;20164;-65
2021/03/01 10:29:13;;;;;;;7.17;5.77;;;21.90;46.20;;;;;;5033825;28;20391;-66
2021/03/01 10:31:39;;;;;;;8.80;6.13;;;21.90;46.20;;;;;;5033412;28;20461;-67
2021/03/01 10:34:07;;;;;;;8.30;6.20;;;22.00;46.30;;;;;;5033902;28;20182;-65
2021/03/01 10:36:57;;;;;;;6.43;5.80;;;22.00;46.30;;;;;;5033893;28;20481;-66
2021/03/01 10:39:32;;;;;;;10.20;5.87;;;22.00;46.30;;;;;;5028606;28;20451;-66
2021/03/01 10:42:13;;;;;;;6.13;5.33;;;21.90;46.20;;;;;;5033660;28;20406;-66
2021/03/01 10:44:45;;;;;;;6.50;5.57;;;22.00;46.30;;;;;;5032328;28;20390;-66
2021/03/01 10:47:13;;;;;;;7.60;6.30;;;22.00;46.30;;;;;;5033755;28;20437;-66
2021/03/01 10:49:38;;;;;;;8.07;5.73;;;21.90;46.30;;;;;;5033663;28;20434;-66
2021/03/01 10:52:08;;;;;;;8.73;6.80;;;22.00;46.30;;;;;;5033453;28;20410;-66
2021/03/01 10:54:35;;;;;;;7.87;5.90;;;22.00;46.30;;;;;;5033594;28;20171;-66
2021/03/01 10:57:01;;;;;;;6.50;5.80;;;22.00;46.30;;;;;;5033069;28;20450;-66
2021/03/01 10:59:26;;;;;;;8.10;5.30;;;22.00;46.30;;;;;;5033331;28;20409;-65
2021/03/01 11:01:52;;;;;;;7.83;4.70;;;22.00;46.30;;;;;;5033250;28;20187;-67
2021/03/01 11:04:18;;;;;;;8.13;6.23;;;22.00;46.40;;;;;;5033698;28;20582;-66
2021/03/01 11:06:48;;;;;;;7.90;5.07;;;22.00;46.30;;;;;;5033689;28;20255;-66
2021/03/01 11:09:14;;;;;;;7.33;5.93;;;22.00;46.30;;;;;;5033404;28;20415;-65
2021/03/01 11:11:40;;;;;;;12.03;6.10;;;22.00;46.30;;;;;;5033432;28;20908;-66
2021/03/01 11:14:07;;;;;;;7.03;5.43;;;22.00;46.30;;;;;;5033050;28;20407;-65
2021/03/01 11:16:33;;;;;;;7.73;5.63;;;22.00;46.30;;;;;;5033236;28;20195;-64
2021/03/01 11:18:58;;;;;;;8.20;5.07;;;22.00;46.60;;;;;;5032147;28;20525;-64
2021/03/01 11:21:25;;;;;;;8.00;5.40;;;22.00;46.30;;;;;;5032283;28;20210;-64
2021/03/01 11:23:50;;;;;;;8.17;6.20;;;22.10;46.40;;;;;;5031951;28;20176;-64
2021/03/01 11:26:16;;;;;;;6.57;4.53;;;22.00;46.30;;;;;;5033191;28;20829;-64
2021/03/01 11:28:43;;;;;;;6.90;5.17;;;22.10;46.40;;;;;;5033111;28;20777;-65
2021/03/01 11:31:09;;;;;;;7.03;4.87;;;22.10;46.40;;;;;;5031685;28;20414;-65
2021/03/01 11:33:35;;;;;;;6.87;5.50;;;22.00;46.30;;;;;;5033223;28;20434;-66
2021/03/01 11:36:01;;;;;;;12.27;5.70;;;22.10;46.40;;;;;;5032969;28;20508;-65
2021/03/01 11:38:28;;;;;;;8.47;5.63;;;22.10;46.40;;;;;;5033037;28;20833;-65
2021/03/01 11:40:54;;;;;;;6.37;5.37;;;22.10;46.40;;;;;;5032966;28;20457;-66
2021/03/01 11:43:20;;;;;;;5.93;4.90;;;22.00;46.30;;;;;;5034894;28;20907;-64
2021/03/01 11:45:45;;;;;;;6.70;4.90;;;22.00;46.30;;;;;;5035424;28;20172;-66
2021/03/01 11:48:13;;;;;;;5.70;5.10;;;22.10;46.40;;;;;;5036542;28;20484;-66
2021/03/01 11:50:41;;;;;;;6.20;5.10;;;22.10;46.40;;;;;;5036572;28;20229;-67
2021/03/01 11:53:07;;;;;;;5.20;4.67;;;22.10;46.40;;;;;;5035335;28;20452;-65
2021/03/01 11:55:32;;;;;;;5.30;4.80;;;22.10;46.40;;;;;;5036347;28;20394;-67
2021/03/01 11:57:58;;;;;;;10.60;5.00;;;22.10;46.50;;;;;;5036555;28;20547;-66
2021/03/01 12:00:24;;;;;;;6.03;4.73;;;22.10;46.50;;;;;;5036752;28;20191;-65
2021/03/01 12:02:49;;;;;;;6.30;4.77;;;22.10;46.40;;;;;;5036562;28;20207;-65
2021/03/01 12:05:15;;;;;;;5.50;5.00;;;22.00;46.40;;;;;;5036978;28;20251;-66
2021/03/01 12:07:41;;;;;;;6.33;5.07;;;22.10;46.40;;;;;;5036812;28;20246;-66
2021/03/01 12:10:07;;;;;;;6.60;4.50;;;22.10;46.40;;;;;;5037001;28;20184;-66
2021/03/01 12:12:33;;;;;;;5.40;4.90;;;22.10;46.40;;;;;;5036436;28;20180;-66
2021/03/01 12:14:59;;;;;;;5.80;5.20;;;22.10;46.40;;;;;;5036197;28;20413;-66
2021/03/01 12:17:25;;;;;;;8.27;5.10;;;22.10;46.40;;;;;;5036196;28;20450;-66
2021/03/01 12:19:50;;;;;;;5.40;4.57;;;22.10;46.40;;;;;;5036312;28;20172;-65
2021/03/01 12:22:16;;;;;;;6.23;5.30;;;22.10;46.40;;;;;;5035941;28;20171;-66
2021/03/01 12:24:42;;;;;;;5.97;4.33;;;22.10;46.40;;;;;;5035902;28;20521;-66
2021/03/01 12:27:09;;;;;;;6.03;4.47;;;22.10;46.40;;;;;;5035858;28;20274;-66
2021/03/01 12:29:34;;;;;;;5.53;4.50;;;22.00;46.90;;;;;;5035969;28;20542;-66
2021/03/01 12:32:00;;;;;;;5.10;4.20;;;22.00;46.30;;;;;;5035829;28;20417;-65
2021/03/01 12:34:26;;;;;;;7.10;4.63;;;22.00;46.90;;;;;;5035747;28;20176;-66
2021/03/01 12:36:51;;;;;;;7.57;4.60;;;22.00;46.40;;;;;;5035450;28;20654;-66
2021/03/01 12:39:17;;;;;;;6.67;4.50;;;22.00;46.40;;;;;;5035754;28;20203;-65
2021/03/01 12:41:42;;;;;;;6.17;4.77;;;22.00;46.40;;;;;;5035960;28;20174;-65
2021/03/01 12:44:08;;;;;;;8.27;5.30;;;22.00;46.40;;;;;;5035856;28;20556;-65
2021/03/01 12:46:34;;;;;;;5.80;4.40;;;22.00;46.40;;;;;;5035786;28;20204;-66
2021/03/01 12:48:59;;;;;;;6.70;4.70;;;22.00;46.40;;;;;;5035273;28;20192;-66
2021/03/01 12:51:25;;;;;;;7.93;5.17;;;22.00;46.40;;;;;;5035537;28;20182;-66
2021/03/01 12:53:51;;;;;;;12.97;4.30;;;22.00;46.40;;;;;;5034696;28;20175;-66
2021/03/01 12:56:16;;;;;;;7.50;5.33;;;21.90;46.40;;;;;;5035458;28;20199;-66